createdAt,value
2019-02-21T00:01:00.672Z,4.80
2019-02-21T00:02:13.519Z,4.80
2019-02-21T00:03:18.652Z,4.70
2019-02-21T00:04:23.800Z,4.70
2019-02-21T00:05:28.905Z,4.70
2019-02-21T00:06:33.977Z,4.70
2019-02-21T00:07:40.174Z,4.70
2019-02-21T00:08:45.374Z,4.70
2019-02-21T00:09:50.422Z,4.70
2019-02-21T00:10:55.499Z,4.70
2019-02-21T00:12:00.591Z,4.70
2019-02-21T00:13:05.704Z,4.70
2019-02-21T00:14:10.810Z,4.70
2019-02-21T00:15:15.917Z,4.70
2019-02-21T00:16:21.031Z,4.70
2019-02-21T00:17:31.560Z,4.70
2019-02-21T00:18:36.649Z,4.70
2019-02-21T00:19:41.804Z,4.70
2019-02-21T00:20:46.817Z,4.60
2019-02-21T00:21:51.860Z,4.60
2019-02-21T00:22:56.947Z,4.60
2019-02-21T00:24:01.981Z,4.50
2019-02-21T00:25:07.040Z,4.50
2019-02-21T00:26:12.128Z,4.40
2019-02-21T00:27:17.341Z,4.40
2019-02-21T00:28:23.305Z,4.40
2019-02-21T00:29:28.423Z,4.40
2019-02-21T00:30:35.427Z,4.40
2019-02-21T00:31:40.482Z,4.40
2019-02-21T00:32:45.614Z,4.40
2019-02-21T00:33:50.748Z,4.30
2019-02-21T00:34:55.925Z,4.30
2019-02-21T00:36:00.966Z,4.30
2019-02-21T00:37:06.399Z,4.40
2019-02-21T00:38:11.409Z,4.40
2019-02-21T00:39:16.518Z,4.40
2019-02-21T00:40:21.594Z,4.40
2019-02-21T00:41:26.741Z,4.40
2019-02-21T00:42:32.120Z,4.40
2019-02-21T00:43:37.253Z,4.40
2019-02-21T00:44:42.313Z,4.40
2019-02-21T00:45:47.509Z,4.40
2019-02-21T00:46:52.610Z,4.40
2019-02-21T00:47:57.736Z,4.40
2019-02-21T00:49:02.862Z,4.40
2019-02-21T00:50:08.040Z,4.40
2019-02-21T00:51:13.090Z,4.40
2019-02-21T00:52:18.308Z,4.40
2019-02-21T00:53:23.792Z,4.40
2019-02-21T00:54:28.933Z,4.40
2019-02-21T00:55:34.076Z,4.40
2019-02-21T00:56:39.124Z,4.40
2019-02-21T00:57:44.229Z,4.40
2019-02-21T00:58:49.242Z,4.40
2019-02-21T00:59:54.329Z,4.40
2019-02-21T01:00:59.367Z,4.30
2019-02-21T01:02:04.527Z,4.30
2019-02-21T01:03:09.681Z,4.30
2019-02-21T01:04:15.049Z,4.30
2019-02-21T01:05:20.424Z,4.20
2019-02-21T01:06:25.544Z,4.20
2019-02-21T01:07:30.631Z,4.20
2019-02-21T01:08:35.652Z,4.20
2019-02-21T01:09:40.699Z,4.20
2019-02-21T01:10:45.834Z,4.20
2019-02-21T01:11:50.969Z,4.10
2019-02-21T01:12:56.165Z,4.10
2019-02-21T01:14:01.188Z,4.10
2019-02-21T01:15:07.483Z,4.10
2019-02-21T01:16:12.607Z,4.00
2019-02-21T01:17:17.719Z,3.90
2019-02-21T01:18:22.746Z,4.00
2019-02-21T01:19:28.132Z,4.00
2019-02-21T01:20:33.264Z,4.00
2019-02-21T01:21:38.404Z,4.00
2019-02-21T01:22:43.500Z,4.00
2019-02-21T01:23:48.668Z,4.00
2019-02-21T01:24:53.786Z,4.00
2019-02-21T01:25:58.826Z,4.00
2019-02-21T01:27:03.940Z,4.00
2019-02-21T01:28:09.042Z,4.00
2019-02-21T01:29:14.147Z,4.10
2019-02-21T01:30:19.244Z,4.10
2019-02-21T01:31:24.279Z,4.10
2019-02-21T01:32:29.469Z,4.10
2019-02-21T01:33:34.673Z,4.20
2019-02-21T01:34:39.788Z,4.10
2019-02-21T01:35:44.908Z,4.20
2019-02-21T01:36:50.036Z,4.20
2019-02-21T01:37:55.045Z,4.20
2019-02-21T01:39:00.084Z,4.20
2019-02-21T01:40:05.645Z,4.20
2019-02-21T01:41:11.177Z,4.30
2019-02-21T01:42:16.305Z,4.30
2019-02-21T01:43:21.409Z,4.30
2019-02-21T01:44:26.586Z,4.20
2019-02-21T01:45:31.695Z,4.30
2019-02-21T01:46:36.749Z,4.30
2019-02-21T01:47:42.881Z,4.30
2019-02-21T01:48:49.137Z,4.20
2019-02-21T01:49:54.245Z,4.30
2019-02-21T01:50:59.345Z,4.30
2019-02-21T01:52:04.484Z,4.30
2019-02-21T01:53:09.521Z,4.20
2019-02-21T01:54:14.534Z,4.20
2019-02-21T01:55:19.644Z,4.20
2019-02-21T01:56:24.720Z,4.20
2019-02-21T01:57:29.761Z,4.20
2019-02-21T01:58:34.864Z,4.20
2019-02-21T01:59:39.954Z,4.10
2019-02-21T02:00:45.202Z,4.10
2019-02-21T02:01:50.349Z,4.00
2019-02-21T02:02:55.458Z,4.00
2019-02-21T02:04:00.529Z,4.00
2019-02-21T02:05:06.137Z,4.00
2019-02-21T02:06:11.243Z,4.00
2019-02-21T02:07:16.288Z,3.90
2019-02-21T02:08:21.741Z,3.90
2019-02-21T02:09:26.799Z,3.90
2019-02-21T02:10:32.013Z,3.90
2019-02-21T02:11:37.190Z,3.90
2019-02-21T02:12:42.383Z,3.90
2019-02-21T02:13:47.437Z,3.90
2019-02-21T02:14:52.893Z,3.90
2019-02-21T02:15:58.012Z,3.90
2019-02-21T02:17:04.105Z,3.90
2019-02-21T02:18:09.153Z,4.00
2019-02-21T02:19:14.271Z,4.00
2019-02-21T02:20:19.301Z,4.00
2019-02-21T02:21:24.324Z,4.00
2019-02-21T02:22:29.433Z,4.00
2019-02-21T02:23:34.574Z,4.00
2019-02-21T02:24:40.439Z,4.00
2019-02-21T02:25:45.497Z,4.00
2019-02-21T02:26:50.621Z,4.00
2019-02-21T02:27:55.855Z,4.10
2019-02-21T02:29:02.098Z,4.10
2019-02-21T02:30:07.680Z,4.00
2019-02-21T02:31:21.922Z,4.00
2019-02-21T02:32:19.941Z,4.00
2019-02-21T02:33:24.976Z,4.00
2019-02-21T02:34:30.249Z,4.00
2019-02-21T02:35:35.368Z,4.00
2019-02-21T02:36:40.679Z,4.00
2019-02-21T02:37:45.692Z,4.00
2019-02-21T02:38:50.865Z,3.90
2019-02-21T02:39:56.028Z,3.90
2019-02-21T02:41:01.130Z,3.90
2019-02-21T02:42:06.154Z,3.90
2019-02-21T02:43:11.208Z,3.90
2019-02-21T02:44:16.383Z,3.90
2019-02-21T02:45:21.405Z,3.90
2019-02-21T02:46:26.413Z,3.90
2019-02-21T02:47:31.514Z,3.80
2019-02-21T02:48:36.643Z,3.80
2019-02-21T02:49:41.734Z,3.80
2019-02-21T02:50:46.844Z,3.90
2019-02-21T02:51:51.974Z,3.80
2019-02-21T02:52:57.156Z,3.90
2019-02-21T02:54:02.204Z,3.90
2019-02-21T02:55:07.326Z,3.90
2019-02-21T02:56:12.429Z,3.90
2019-02-21T02:57:17.508Z,3.90
2019-02-21T02:58:24.636Z,3.90
2019-02-21T02:59:40.386Z,3.80
2019-02-21T03:00:36.588Z,3.90
2019-02-21T03:01:41.609Z,3.90
2019-02-21T03:02:46.723Z,3.90
2019-02-21T03:03:51.900Z,4.00
2019-02-21T03:04:56.957Z,4.00
2019-02-21T03:06:02.053Z,4.10
2019-02-21T03:07:07.476Z,4.20
2019-02-21T03:08:12.503Z,4.20
2019-02-21T03:09:17.602Z,4.20
2019-02-21T03:10:22.808Z,4.20
2019-02-21T03:11:27.903Z,4.30
2019-02-21T03:12:32.982Z,4.30
2019-02-21T03:13:38.098Z,4.40
2019-02-21T03:14:43.137Z,4.40
2019-02-21T03:15:48.296Z,4.40
2019-02-21T03:16:53.422Z,4.40
2019-02-21T03:17:58.513Z,4.50
2019-02-21T03:19:03.634Z,4.50
2019-02-21T03:20:09.163Z,4.50
2019-02-21T03:21:14.277Z,4.50
2019-02-21T03:22:19.329Z,4.50
2019-02-21T03:23:24.728Z,4.40
2019-02-21T03:24:29.887Z,4.40
2019-02-21T03:25:35.092Z,4.40
2019-02-21T03:26:40.174Z,4.40
2019-02-21T03:27:45.193Z,4.40
2019-02-21T03:28:50.296Z,4.40
2019-02-21T03:29:55.466Z,4.40
2019-02-21T03:31:00.581Z,4.40
2019-02-21T03:32:05.704Z,4.40
2019-02-21T03:33:10.730Z,4.40
2019-02-21T03:34:15.865Z,4.40
2019-02-21T03:35:20.937Z,4.30
2019-02-21T03:36:26.100Z,4.30
2019-02-21T03:37:31.198Z,4.30
2019-02-21T03:38:36.324Z,4.30
2019-02-21T03:39:41.352Z,4.30
2019-02-21T03:40:46.535Z,4.30
2019-02-21T03:41:51.567Z,4.30
2019-02-21T03:42:56.589Z,4.30
2019-02-21T03:44:01.689Z,4.30
2019-02-21T03:45:07.984Z,4.20
2019-02-21T03:46:13.037Z,4.30
2019-02-21T03:47:18.182Z,4.30
2019-02-21T03:48:23.377Z,4.30
2019-02-21T03:49:28.411Z,4.30
2019-02-21T03:50:33.461Z,4.30
2019-02-21T03:51:38.630Z,4.30
2019-02-21T03:52:45.838Z,4.20
2019-02-21T03:53:50.858Z,4.20
2019-02-21T03:54:56.035Z,4.10
2019-02-21T03:56:01.271Z,3.90
2019-02-21T03:57:06.398Z,3.90
2019-02-21T03:58:11.885Z,3.90
2019-02-21T03:59:16.908Z,3.90
2019-02-21T04:00:21.967Z,4.00
2019-02-21T04:01:27.557Z,4.00
2019-02-21T04:02:32.650Z,4.00
2019-02-21T04:03:38.076Z,4.00
2019-02-21T04:04:43.206Z,4.00
2019-02-21T04:05:48.230Z,4.00
2019-02-21T04:06:53.469Z,4.00
2019-02-21T04:07:58.628Z,4.00
2019-02-21T04:09:05.125Z,4.00
2019-02-21T04:10:10.283Z,4.10
2019-02-21T04:11:15.309Z,4.10
2019-02-21T04:12:20.417Z,4.10
2019-02-21T04:13:25.537Z,4.00
2019-02-21T04:14:30.629Z,4.00
2019-02-21T04:15:36.711Z,4.00
2019-02-21T04:16:42.973Z,4.00
2019-02-21T04:17:48.090Z,4.00
2019-02-21T04:18:53.234Z,4.00
2019-02-21T04:19:58.402Z,4.00
2019-02-21T04:21:03.486Z,4.00
2019-02-21T04:22:09.693Z,4.10
2019-02-21T04:23:14.744Z,4.10
2019-02-21T04:24:19.920Z,4.10
2019-02-21T04:25:24.948Z,4.10
2019-02-21T04:26:29.968Z,4.10
2019-02-21T04:27:35.096Z,4.10
2019-02-21T04:28:40.117Z,4.00
2019-02-21T04:29:45.182Z,4.10
2019-02-21T04:30:50.293Z,4.10
2019-02-21T04:31:55.416Z,4.10
2019-02-21T04:33:00.534Z,4.10
2019-02-21T04:34:08.125Z,4.10
2019-02-21T04:35:13.233Z,4.20
2019-02-21T04:36:18.241Z,4.20
2019-02-21T04:37:23.414Z,4.20
2019-02-21T04:38:28.595Z,4.30
2019-02-21T04:39:34.033Z,4.30
2019-02-21T04:40:39.230Z,4.30
2019-02-21T04:41:44.248Z,4.40
2019-02-21T04:42:49.329Z,4.40
2019-02-21T04:43:54.366Z,4.40
2019-02-21T04:44:59.616Z,4.40
2019-02-21T04:46:05.911Z,4.40
2019-02-21T04:47:10.941Z,4.40
2019-02-21T04:48:16.062Z,4.40
2019-02-21T04:49:21.195Z,4.30
2019-02-21T04:50:26.293Z,4.30
2019-02-21T04:51:31.399Z,4.30
2019-02-21T04:52:36.595Z,4.20
2019-02-21T04:53:41.764Z,4.20
2019-02-21T04:54:46.781Z,4.10
2019-02-21T04:55:51.890Z,4.20
2019-02-21T04:56:56.932Z,4.20
2019-02-21T04:58:02.014Z,4.20
2019-02-21T04:59:07.137Z,4.20
2019-02-21T05:00:12.708Z,4.20
2019-02-21T05:01:17.813Z,4.20
2019-02-21T05:02:28.984Z,4.20
2019-02-21T05:03:29.759Z,4.20
2019-02-21T05:04:34.867Z,4.20
2019-02-21T05:05:39.968Z,4.10
2019-02-21T05:06:45.020Z,4.10
2019-02-21T05:07:50.029Z,4.10
2019-02-21T05:08:55.066Z,4.10
2019-02-21T05:10:00.398Z,4.10
2019-02-21T05:11:05.554Z,4.10
2019-02-21T05:12:10.683Z,4.10
2019-02-21T05:13:15.829Z,4.10
2019-02-21T05:14:20.947Z,4.10
2019-02-21T05:15:25.996Z,4.10
2019-02-21T05:16:31.094Z,4.20
2019-02-21T05:17:36.196Z,4.10
2019-02-21T05:18:41.456Z,4.10
2019-02-21T05:19:46.580Z,4.10
2019-02-21T05:20:51.691Z,4.20
2019-02-21T05:21:56.752Z,4.10
2019-02-21T05:23:03.477Z,4.10
2019-02-21T05:24:08.513Z,4.10
2019-02-21T05:25:13.558Z,4.10
2019-02-21T05:26:23.494Z,4.10
2019-02-21T05:27:32.632Z,4.10
2019-02-21T05:28:37.812Z,4.10
2019-02-21T05:29:42.939Z,4.00
2019-02-21T05:30:49.329Z,4.00
2019-02-21T05:32:12.286Z,4.00
2019-02-21T05:33:35.311Z,4.00
2019-02-21T05:34:44.759Z,3.90
2019-02-21T05:35:57.270Z,3.90
2019-02-21T05:37:20.129Z,3.90
2019-02-21T05:38:50.250Z,3.90
2019-02-21T05:40:18.171Z,3.80
2019-02-21T05:41:45.625Z,3.80
2019-02-21T05:43:18.683Z,3.80
2019-02-21T05:44:35.132Z,3.80
2019-02-21T05:45:54.716Z,3.70
2019-02-21T05:47:17.680Z,3.50
2019-02-21T05:48:48.142Z,3.40
2019-02-21T05:50:18.146Z,3.30
2019-02-21T05:51:40.179Z,3.10
2019-02-21T05:52:57.358Z,3.10
2019-02-21T05:54:36.473Z,3.00
2019-02-21T05:56:06.824Z,3.00
2019-02-21T05:57:25.769Z,3.00
2019-02-21T05:58:44.878Z,3.00
2019-02-21T06:00:14.826Z,3.00
2019-02-21T06:01:31.838Z,3.00
2019-02-21T06:03:01.963Z,3.00
2019-02-21T06:04:14.786Z,3.00
2019-02-21T06:05:38.873Z,3.00
2019-02-21T06:07:03.079Z,3.00
2019-02-21T06:08:39.586Z,3.00
2019-02-21T06:09:53.884Z,3.00
2019-02-21T06:11:06.115Z,3.00
2019-02-21T06:12:39.365Z,3.00
2019-02-21T06:14:01.601Z,3.00
2019-02-21T06:15:38.178Z,3.00
2019-02-21T06:17:00.796Z,3.00
2019-02-21T06:18:23.738Z,3.00
2019-02-21T06:19:36.664Z,3.10
2019-02-21T06:20:51.304Z,3.10
2019-02-21T06:22:15.396Z,3.10
2019-02-21T06:23:42.353Z,3.10
2019-02-21T06:24:55.743Z,3.10
2019-02-21T06:26:09.250Z,3.10
2019-02-21T06:27:22.383Z,3.10
2019-02-21T06:28:34.265Z,3.10
2019-02-21T06:29:47.068Z,3.10
2019-02-21T06:30:58.454Z,3.10
2019-02-21T06:32:13.892Z,3.10
2019-02-21T06:33:10.530Z,3.00
2019-02-21T06:34:15.616Z,3.00
2019-02-21T06:35:20.741Z,3.10
2019-02-21T06:36:26.333Z,3.10
2019-02-21T06:37:31.538Z,3.10
2019-02-21T06:38:39.770Z,3.20
2019-02-21T06:39:44.809Z,3.20
2019-02-21T06:40:49.952Z,3.20
2019-02-21T06:41:59.653Z,3.30
2019-02-21T06:43:01.728Z,3.30
2019-02-21T06:44:08.584Z,3.30
2019-02-21T06:45:13.693Z,3.30
2019-02-21T06:46:18.777Z,3.40
2019-02-21T06:47:23.829Z,3.40
2019-02-21T06:48:28.909Z,3.40
2019-02-21T06:49:34.011Z,3.50
2019-02-21T06:50:39.132Z,3.50
2019-02-21T06:51:44.224Z,3.50
2019-02-21T06:52:49.344Z,3.50
2019-02-21T06:54:13.613Z,3.60
2019-02-21T06:55:20.546Z,3.60
2019-02-21T06:56:25.540Z,3.60
2019-02-21T06:57:30.650Z,3.60
2019-02-21T06:58:35.733Z,3.70
2019-02-21T06:59:43.484Z,3.70
2019-02-21T07:00:47.728Z,3.70
2019-02-21T07:01:52.845Z,3.70
2019-02-21T07:02:57.912Z,3.60
2019-02-21T07:04:03.021Z,3.60
2019-02-21T07:05:08.128Z,3.60
2019-02-21T07:06:14.640Z,3.70
2019-02-21T07:07:19.806Z,3.70
2019-02-21T07:08:25.249Z,3.80
2019-02-21T07:09:31.907Z,3.90
2019-02-21T07:10:37.049Z,4.20
2019-02-21T07:11:42.166Z,4.60
2019-02-21T07:12:47.293Z,5.00
2019-02-21T07:13:52.476Z,5.50
2019-02-21T07:14:57.671Z,5.90
2019-02-21T07:16:02.797Z,6.40
2019-02-21T07:17:08.660Z,6.90
2019-02-21T07:18:13.930Z,7.30
2019-02-21T07:19:19.056Z,7.80
2019-02-21T07:20:24.195Z,8.30
2019-02-21T07:21:29.300Z,8.90
2019-02-21T07:22:34.396Z,9.40
2019-02-21T07:23:43.423Z,9.90
2019-02-21T07:24:48.058Z,10.40
2019-02-21T07:25:59.020Z,10.90
2019-02-21T07:27:04.434Z,11.40
2019-02-21T07:28:12.509Z,11.90
2019-02-21T07:29:17.480Z,12.50
2019-02-21T07:30:23.241Z,12.90
2019-02-21T07:31:32.528Z,13.40
2019-02-21T07:32:36.518Z,13.80
2019-02-21T07:33:42.360Z,14.30
2019-02-21T07:34:47.481Z,14.70
2019-02-21T07:35:52.687Z,15.10
2019-02-21T07:36:57.813Z,15.50
2019-02-21T07:38:02.845Z,15.80
2019-02-21T07:39:17.026Z,16.10
2019-02-21T07:40:20.120Z,16.50
2019-02-21T07:41:21.777Z,17.00
2019-02-21T07:42:26.881Z,17.50
2019-02-21T07:43:32.010Z,17.90
2019-02-21T07:44:37.136Z,18.40
2019-02-21T07:45:42.240Z,18.90
2019-02-21T07:46:47.267Z,19.50
2019-02-21T07:47:52.380Z,20.00
2019-02-21T07:48:57.390Z,20.40
2019-02-21T07:50:02.458Z,20.50
2019-02-21T07:51:07.579Z,20.40
2019-02-21T07:52:12.691Z,20.20
2019-02-21T07:53:17.815Z,19.80
2019-02-21T07:54:22.951Z,18.90
2019-02-21T07:55:28.122Z,18.70
2019-02-21T07:56:41.633Z,18.40
2019-02-21T07:57:40.012Z,18.10
2019-02-21T07:58:45.114Z,17.80
2019-02-21T07:59:50.296Z,17.40
2019-02-21T08:00:55.404Z,17.10
2019-02-21T08:02:00.524Z,16.80
2019-02-21T08:03:05.633Z,16.60
2019-02-21T08:04:10.757Z,16.40
2019-02-21T08:05:15.876Z,16.20
2019-02-21T08:06:20.919Z,16.00
2019-02-21T08:07:26.459Z,15.90
2019-02-21T08:08:32.585Z,15.70
2019-02-21T08:09:38.023Z,15.70
2019-02-21T08:10:43.186Z,15.70
2019-02-21T08:11:48.284Z,16.00
2019-02-21T08:12:53.730Z,16.40
2019-02-21T08:13:58.991Z,16.50
2019-02-21T08:15:04.075Z,16.50
2019-02-21T08:16:09.340Z,16.50
2019-02-21T08:17:16.287Z,16.60
2019-02-21T08:18:21.625Z,16.80
2019-02-21T08:19:26.777Z,16.80
2019-02-21T08:20:34.685Z,16.70
2019-02-21T08:21:38.782Z,16.70
2019-02-21T08:22:44.057Z,16.50
2019-02-21T08:23:50.879Z,16.40
2019-02-21T08:24:56.588Z,16.30
2019-02-21T08:26:01.876Z,16.30
2019-02-21T08:27:07.021Z,16.20
2019-02-21T08:28:12.144Z,16.10
2019-02-21T08:29:20.634Z,16.00
2019-02-21T08:30:25.316Z,15.70
2019-02-21T08:31:30.428Z,15.40
2019-02-21T08:32:54.505Z,14.90
2019-02-21T08:34:05.849Z,14.70
2019-02-21T08:35:10.943Z,14.50
2019-02-21T08:36:16.088Z,14.40
2019-02-21T08:37:21.177Z,14.40
2019-02-21T08:38:26.299Z,14.50
2019-02-21T08:39:31.408Z,14.80
2019-02-21T08:40:36.511Z,14.90
2019-02-21T08:41:41.607Z,15.00
2019-02-21T08:42:47.884Z,15.00
2019-02-21T08:43:53.003Z,15.20
2019-02-21T08:44:59.096Z,15.50
2019-02-21T08:46:05.355Z,16.10
2019-02-21T08:47:10.589Z,16.60
2019-02-21T08:48:16.066Z,17.10
2019-02-21T08:49:21.597Z,17.40
2019-02-21T08:50:26.729Z,17.60
2019-02-21T08:51:32.132Z,17.70
2019-02-21T08:52:37.305Z,17.70
2019-02-21T08:53:42.352Z,17.70
2019-02-21T08:54:47.461Z,17.70
2019-02-21T08:55:52.607Z,17.50
2019-02-21T08:56:57.737Z,17.60
2019-02-21T08:58:02.873Z,18.00
2019-02-21T08:59:07.991Z,18.80
2019-02-21T09:00:13.441Z,19.80
2019-02-21T09:01:18.539Z,20.90
2019-02-21T09:02:23.667Z,21.70
2019-02-21T09:03:28.778Z,22.10
2019-02-21T09:04:33.792Z,22.30
2019-02-21T09:05:38.919Z,22.50
2019-02-21T09:06:44.094Z,22.60
2019-02-21T09:07:49.234Z,22.50
2019-02-21T09:08:54.284Z,22.40
2019-02-21T09:09:59.406Z,22.20
2019-02-21T09:11:04.513Z,21.90
2019-02-21T09:12:09.623Z,21.50
2019-02-21T09:13:14.665Z,21.20
2019-02-21T09:14:19.760Z,20.90
2019-02-21T09:15:24.901Z,20.60
2019-02-21T09:16:29.993Z,20.30
2019-02-21T09:17:35.145Z,20.00
2019-02-21T09:18:40.194Z,19.80
2019-02-21T09:19:45.304Z,19.60
2019-02-21T09:20:50.440Z,19.40
2019-02-21T09:21:55.531Z,19.30
2019-02-21T09:23:00.684Z,19.10
2019-02-21T09:24:05.892Z,19.00
2019-02-21T09:25:12.160Z,18.90
2019-02-21T09:26:17.251Z,18.80
2019-02-21T09:27:22.295Z,18.70
2019-02-21T09:28:27.476Z,18.60
2019-02-21T09:29:32.585Z,18.50
2019-02-21T09:30:37.609Z,18.60
2019-02-21T09:31:42.740Z,18.80
2019-02-21T09:32:50.535Z,19.00
2019-02-21T09:33:55.658Z,19.50
2019-02-21T09:35:00.704Z,20.20
2019-02-21T09:36:07.237Z,20.80
2019-02-21T09:37:12.340Z,21.20
2019-02-21T09:38:17.397Z,21.40
2019-02-21T09:39:22.499Z,21.50
2019-02-21T09:40:28.475Z,21.90
2019-02-21T09:41:33.912Z,22.60
2019-02-21T09:42:38.961Z,23.30
2019-02-21T09:43:44.093Z,24.10
2019-02-21T09:44:49.860Z,24.80
2019-02-21T09:45:55.117Z,25.60
2019-02-21T09:47:00.208Z,26.30
2019-02-21T09:48:05.488Z,27.10
2019-02-21T09:49:10.705Z,27.80
2019-02-21T09:50:15.734Z,28.30
2019-02-21T09:51:21.186Z,28.50
2019-02-21T09:52:26.389Z,29.00
2019-02-21T09:53:31.608Z,29.50
2019-02-21T09:54:36.707Z,29.90
2019-02-21T09:55:41.827Z,30.40
2019-02-21T09:56:52.726Z,30.80
2019-02-21T09:57:53.748Z,31.30
2019-02-21T09:58:58.826Z,31.80
2019-02-21T10:00:04.105Z,32.30
2019-02-21T10:01:09.598Z,32.80
2019-02-21T10:02:14.768Z,33.30
2019-02-21T10:03:19.815Z,33.60
2019-02-21T10:04:32.185Z,33.60
2019-02-21T10:05:32.606Z,33.50
2019-02-21T10:06:37.937Z,33.40
2019-02-21T10:07:43.015Z,33.30
2019-02-21T10:08:48.124Z,33.30
2019-02-21T10:09:53.176Z,33.30
2019-02-21T10:11:00.934Z,33.40
2019-02-21T10:12:05.026Z,33.40
2019-02-21T10:13:12.946Z,33.60
2019-02-21T10:14:17.013Z,33.50
2019-02-21T10:15:22.082Z,32.60
2019-02-21T10:16:27.118Z,31.50
2019-02-21T10:17:32.294Z,31.60
2019-02-21T10:18:37.377Z,31.60
2019-02-21T10:19:42.477Z,31.30
2019-02-21T10:20:47.672Z,31.00
2019-02-21T10:21:52.717Z,30.80
2019-02-21T10:22:57.844Z,30.70
2019-02-21T10:24:02.876Z,30.60
2019-02-21T10:25:11.512Z,30.60
2019-02-21T10:26:16.634Z,30.50
2019-02-21T10:27:21.745Z,30.70
2019-02-21T10:28:26.884Z,30.80
2019-02-21T10:29:32.046Z,31.20
2019-02-21T10:30:37.172Z,31.50
2019-02-21T10:31:42.934Z,31.70
2019-02-21T10:32:47.957Z,31.70
2019-02-21T10:33:52.984Z,31.60
2019-02-21T10:34:58.093Z,31.40
2019-02-21T10:36:03.254Z,31.10
2019-02-21T10:37:08.388Z,30.70
2019-02-21T10:38:13.479Z,30.40
2019-02-21T10:39:18.581Z,30.40
2019-02-21T10:40:24.554Z,29.50
2019-02-21T10:41:29.672Z,28.50
2019-02-21T10:42:34.774Z,28.20
2019-02-21T10:43:39.925Z,28.20
2019-02-21T10:44:45.062Z,28.10
2019-02-21T10:45:50.196Z,28.10
2019-02-21T10:46:55.340Z,28.20
2019-02-21T10:48:00.425Z,28.00
2019-02-21T10:49:05.452Z,27.70
2019-02-21T10:50:15.691Z,27.40
2019-02-21T10:51:21.872Z,26.90
2019-02-21T10:52:26.947Z,26.70
2019-02-21T10:53:32.149Z,26.40
2019-02-21T10:54:37.282Z,26.20
2019-02-21T10:55:42.412Z,26.00
2019-02-21T10:56:47.650Z,25.80
2019-02-21T10:57:52.734Z,25.70
2019-02-21T10:58:57.865Z,25.50
2019-02-21T11:00:03.003Z,25.30
2019-02-21T11:01:09.681Z,24.90
2019-02-21T11:02:14.777Z,24.70
2019-02-21T11:03:19.861Z,24.50
2019-02-21T11:04:25.064Z,24.40
2019-02-21T11:05:30.210Z,24.10
2019-02-21T11:06:35.359Z,23.70
2019-02-21T11:07:40.472Z,23.50
2019-02-21T11:08:45.570Z,23.30
2019-02-21T11:09:50.828Z,23.00
2019-02-21T11:10:55.881Z,22.70
2019-02-21T11:12:00.999Z,22.30
2019-02-21T11:13:07.051Z,21.90
2019-02-21T11:14:12.279Z,21.80
2019-02-21T11:15:17.545Z,21.60
2019-02-21T11:16:22.943Z,21.50
2019-02-21T11:17:28.073Z,21.40
2019-02-21T11:18:33.193Z,21.00
2019-02-21T11:19:38.230Z,20.80
2019-02-21T11:20:43.369Z,20.70
2019-02-21T11:21:48.669Z,20.60
2019-02-21T11:22:53.988Z,20.50
2019-02-21T11:23:59.106Z,20.60
2019-02-21T11:25:04.238Z,20.70
2019-02-21T11:26:09.346Z,20.70
2019-02-21T11:27:14.418Z,20.80
2019-02-21T11:28:19.532Z,20.90
2019-02-21T11:29:24.577Z,20.90
2019-02-21T11:30:29.687Z,20.90
2019-02-21T11:31:34.741Z,20.90
2019-02-21T11:32:39.865Z,20.90
2019-02-21T11:33:44.989Z,21.00
2019-02-21T11:34:50.139Z,21.00
2019-02-21T11:35:55.366Z,21.00
2019-02-21T11:37:00.493Z,21.10
2019-02-21T11:38:05.609Z,21.10
2019-02-21T11:39:10.737Z,21.20
2019-02-21T11:40:16.160Z,21.20
2019-02-21T11:41:21.199Z,21.20
2019-02-21T11:42:26.387Z,21.20
2019-02-21T11:43:31.635Z,21.30
2019-02-21T11:44:36.752Z,21.30
2019-02-21T11:45:53.167Z,21.40
2019-02-21T11:46:48.658Z,21.40
2019-02-21T11:47:53.720Z,21.40
2019-02-21T11:48:58.813Z,21.40
2019-02-21T11:50:03.879Z,21.20
2019-02-21T11:51:09.028Z,20.80
2019-02-21T11:52:14.124Z,20.80
2019-02-21T11:53:19.237Z,20.60
2019-02-21T11:54:27.231Z,20.40
2019-02-21T11:55:31.066Z,20.30
2019-02-21T11:56:36.198Z,20.20
2019-02-21T11:57:41.324Z,20.10
2019-02-21T11:58:46.497Z,19.90
2019-02-21T11:59:51.620Z,19.70
2019-02-21T12:00:56.735Z,19.40
2019-02-21T12:02:01.863Z,19.40
2019-02-21T12:03:10.022Z,19.40
2019-02-21T12:04:15.090Z,19.50
2019-02-21T12:05:30.416Z,19.50
2019-02-21T12:06:26.984Z,19.60
2019-02-21T12:07:32.140Z,19.50
2019-02-21T12:08:37.280Z,19.50
2019-02-21T12:09:42.405Z,19.50
2019-02-21T12:10:50.945Z,19.40
2019-02-21T12:11:56.057Z,19.40
2019-02-21T12:13:01.157Z,19.40
2019-02-21T12:14:11.571Z,19.40
2019-02-21T12:15:17.108Z,19.40
2019-02-21T12:16:22.285Z,19.40
2019-02-21T12:17:27.403Z,19.30
2019-02-21T12:18:32.577Z,19.30
2019-02-21T12:19:37.720Z,19.20
2019-02-21T12:20:42.832Z,19.10
2019-02-21T12:21:58.350Z,18.80
2019-02-21T12:22:54.819Z,18.80
2019-02-21T12:24:03.152Z,18.80
2019-02-21T12:25:10.235Z,18.70
2019-02-21T12:26:16.342Z,18.60
2019-02-21T12:27:21.469Z,18.50
2019-02-21T12:28:26.686Z,18.50
2019-02-21T12:29:31.825Z,18.50
2019-02-21T12:30:36.930Z,18.50
2019-02-21T12:31:42.059Z,18.60
2019-02-21T12:32:47.105Z,18.70
2019-02-21T12:33:52.221Z,18.70
2019-02-21T12:34:58.469Z,18.70
2019-02-21T12:36:03.627Z,18.80
2019-02-21T12:37:08.719Z,18.80
2019-02-21T12:38:13.813Z,18.90
2019-02-21T12:39:18.888Z,18.90
2019-02-21T12:40:24.089Z,18.90
2019-02-21T12:41:29.210Z,18.80
2019-02-21T12:42:34.333Z,18.80
2019-02-21T12:43:40.532Z,18.80
2019-02-21T12:44:47.797Z,18.80
2019-02-21T12:45:59.759Z,18.80
2019-02-21T12:47:04.876Z,18.80
2019-02-21T12:48:10.060Z,18.90
2019-02-21T12:49:15.293Z,18.90
2019-02-21T12:50:20.349Z,18.90
2019-02-21T12:51:25.460Z,18.90
2019-02-21T12:52:30.544Z,19.00
2019-02-21T12:53:35.660Z,19.00
2019-02-21T12:54:40.731Z,19.00
2019-02-21T12:55:45.872Z,19.00
2019-02-21T12:56:51.038Z,19.10
2019-02-21T12:57:56.189Z,19.10
2019-02-21T12:59:01.248Z,19.20
2019-02-21T13:00:08.361Z,19.20
2019-02-21T13:01:13.621Z,19.20
2019-02-21T13:02:18.726Z,19.20
2019-02-21T13:03:23.821Z,19.10
2019-02-21T13:04:28.873Z,19.10
2019-02-21T13:05:41.046Z,19.10
2019-02-21T13:06:40.710Z,19.10
2019-02-21T13:07:45.822Z,19.10
2019-02-21T13:08:51.076Z,19.10
2019-02-21T13:09:56.253Z,19.10
2019-02-21T13:11:01.384Z,19.10
2019-02-21T13:12:06.523Z,19.10
2019-02-21T13:13:11.689Z,18.90
2019-02-21T13:14:16.819Z,18.90
2019-02-21T13:15:22.023Z,18.90
2019-02-21T13:16:27.113Z,18.70
2019-02-21T13:17:32.194Z,18.70
2019-02-21T13:18:37.510Z,18.70
2019-02-21T13:19:42.677Z,18.70
2019-02-21T13:20:47.777Z,18.70
2019-02-21T13:21:52.841Z,18.80
2019-02-21T13:22:57.963Z,18.90
2019-02-21T13:24:03.073Z,19.10
2019-02-21T13:25:09.171Z,19.10
2019-02-21T13:26:14.220Z,19.10
2019-02-21T13:27:19.344Z,19.10
2019-02-21T13:28:24.450Z,19.10
2019-02-21T13:29:29.569Z,19.10
2019-02-21T13:30:34.577Z,18.90
2019-02-21T13:31:39.709Z,18.70
2019-02-21T13:32:45.164Z,18.80
2019-02-21T13:33:50.344Z,18.80
2019-02-21T13:34:55.473Z,18.80
2019-02-21T13:36:00.589Z,18.70
2019-02-21T13:37:05.685Z,18.60
2019-02-21T13:38:10.815Z,18.50
2019-02-21T13:39:15.867Z,18.40
2019-02-21T13:40:21.503Z,18.20
2019-02-21T13:41:26.668Z,18.00
2019-02-21T13:42:31.848Z,17.90
2019-02-21T13:43:36.960Z,17.90
2019-02-21T13:44:42.078Z,17.80
2019-02-21T13:45:47.170Z,17.80
2019-02-21T13:46:52.213Z,17.80
2019-02-21T13:47:57.288Z,17.80
2019-02-21T13:49:02.421Z,17.80
2019-02-21T13:50:10.432Z,17.90
2019-02-21T13:51:15.542Z,17.80
2019-02-21T13:52:20.668Z,17.80
2019-02-21T13:53:25.717Z,17.70
2019-02-21T13:54:30.762Z,17.60
2019-02-21T13:55:35.888Z,17.60
2019-02-21T13:56:40.999Z,17.50
2019-02-21T13:57:46.199Z,17.50
2019-02-21T13:58:51.338Z,17.50
2019-02-21T13:59:56.378Z,17.40
2019-02-21T14:01:01.523Z,17.40
2019-02-21T14:02:07.712Z,17.30
2019-02-21T14:03:12.821Z,17.30
2019-02-21T14:04:17.935Z,17.30
2019-02-21T14:05:23.065Z,17.20
2019-02-21T14:06:28.158Z,17.10
2019-02-21T14:07:33.297Z,17.10
2019-02-21T14:08:38.334Z,17.10
2019-02-21T14:09:43.377Z,17.10
2019-02-21T14:10:50.867Z,17.20
2019-02-21T14:11:56.234Z,17.30
2019-02-21T14:13:01.376Z,17.30
2019-02-21T14:14:06.479Z,17.30
2019-02-21T14:15:14.224Z,17.30
2019-02-21T14:16:19.749Z,17.40
2019-02-21T14:17:24.900Z,17.30
2019-02-21T14:18:30.132Z,17.30
2019-02-21T14:19:35.313Z,17.20
2019-02-21T14:20:45.381Z,17.20
2019-02-21T14:21:47.380Z,17.10
2019-02-21T14:22:52.416Z,17.00
2019-02-21T14:23:57.473Z,17.00
2019-02-21T14:25:02.674Z,17.00
2019-02-21T14:26:07.860Z,17.10
2019-02-21T14:27:13.004Z,17.10
2019-02-21T14:28:18.303Z,17.10
2019-02-21T14:29:23.442Z,17.10